sensor_id;sensor_type;location;lat;lon;timestamp;temperature;humidity
55648;DHT22;45266;48.756;9.246;2024-03-29T00:01:41;2.30;86.10
55648;DHT22;45266;48.756;9.246;2024-03-29T00:06:41;2.30;85.80
55648;DHT22;45266;48.756;9.246;2024-03-29T00:11:42;2.40;86.70
55648;DHT22;45266;48.756;9.246;2024-03-29T00:16:43;2.50;87.20
55648;DHT22;45266;48.756;9.246;2024-03-29T00:21:44;2.50;86.60
55648;DHT22;45266;48.756;9.246;2024-03-29T00:26:45;2.50;86.70
55648;DHT22;45266;48.756;9.246;2024-03-29T00:31:45;2.50;86.80
55648;DHT22;45266;48.756;9.246;2024-03-29T00:36:47;2.60;86.70
55648;DHT22;45266;48.756;9.246;2024-03-29T00:41:48;2.70;87.20
55648;DHT22;45266;48.756;9.246;2024-03-29T00:46:49;2.70;87.50
55648;DHT22;45266;48.756;9.246;2024-03-29T00:51:50;2.70;87.60
55648;DHT22;45266;48.756;9.246;2024-03-29T00:56:51;2.70;88.00
55648;DHT22;45266;48.756;9.246;2024-03-29T01:01:52;2.80;88.40
55648;DHT22;45266;48.756;9.246;2024-03-29T01:06:53;2.90;87.90
55648;DHT22;45266;48.756;9.246;2024-03-29T01:11:57;3.00;87.60
55648;DHT22;45266;48.756;9.246;2024-03-29T01:16:58;3.10;86.70
55648;DHT22;45266;48.756;9.246;2024-03-29T01:21:59;3.10;87.00
55648;DHT22;45266;48.756;9.246;2024-03-29T01:27:00;3.10;87.20
55648;DHT22;45266;48.756;9.246;2024-03-29T01:32:01;3.10;86.60
55648;DHT22;45266;48.756;9.246;2024-03-29T01:37:02;3.10;86.90
55648;DHT22;45266;48.756;9.246;2024-03-29T01:42:03;3.10;87.10
55648;DHT22;45266;48.756;9.246;2024-03-29T01:47:04;3.10;87.30
55648;DHT22;45266;48.756;9.246;2024-03-29T01:52:06;3.10;87.60
55648;DHT22;45266;48.756;9.246;2024-03-29T01:57:07;3.10;88.50
55648;DHT22;45266;48.756;9.246;2024-03-29T02:02:08;3.10;89.10
55648;DHT22;45266;48.756;9.246;2024-03-29T02:07:09;3.10;89.50
55648;DHT22;45266;48.756;9.246;2024-03-29T02:12:10;3.10;89.80
55648;DHT22;45266;48.756;9.246;2024-03-29T02:17:11;3.10;89.60
55648;DHT22;45266;48.756;9.246;2024-03-29T02:22:15;3.10;89.80
55648;DHT22;45266;48.756;9.246;2024-03-29T02:27:16;3.10;89.60
55648;DHT22;45266;48.756;9.246;2024-03-29T02:32:17;3.20;89.60
55648;DHT22;45266;48.756;9.246;2024-03-29T02:37:18;3.30;89.70
55648;DHT22;45266;48.756;9.246;2024-03-29T02:42:19;3.30;89.60
55648;DHT22;45266;48.756;9.246;2024-03-29T02:47:20;3.30;89.60
55648;DHT22;45266;48.756;9.246;2024-03-29T02:52:20;3.30;89.70
55648;DHT22;45266;48.756;9.246;2024-03-29T02:57:21;3.30;89.20
55648;DHT22;45266;48.756;9.246;2024-03-29T03:02:23;3.40;89.30
55648;DHT22;45266;48.756;9.246;2024-03-29T03:07:25;3.50;89.10
55648;DHT22;45266;48.756;9.246;2024-03-29T03:12:45;3.50;89.10
55648;DHT22;45266;48.756;9.246;2024-03-29T03:17:46;3.60;89.30
55648;DHT22;45266;48.756;9.246;2024-03-29T03:22:47;3.70;88.60
55648;DHT22;45266;48.756;9.246;2024-03-29T03:27:48;3.70;88.80
55648;DHT22;45266;48.756;9.246;2024-03-29T03:32:48;3.70;88.70
55648;DHT22;45266;48.756;9.246;2024-03-29T03:37:49;3.80;89.00
55648;DHT22;45266;48.756;9.246;2024-03-29T03:42:50;3.90;89.00
55648;DHT22;45266;48.756;9.246;2024-03-29T03:47:51;4.00;88.70
55648;DHT22;45266;48.756;9.246;2024-03-29T03:52:52;4.20;88.70
55648;DHT22;45266;48.756;9.246;2024-03-29T03:57:53;4.40;84.80
55648;DHT22;45266;48.756;9.246;2024-03-29T04:02:54;4.50;83.50
55648;DHT22;45266;48.756;9.246;2024-03-29T04:07:58;4.70;81.40
55648;DHT22;45266;48.756;9.246;2024-03-29T04:12:59;4.70;81.40
55648;DHT22;45266;48.756;9.246;2024-03-29T04:18:00;4.90;79.60
55648;DHT22;45266;48.756;9.246;2024-03-29T04:23:04;5.00;79.30
55648;DHT22;45266;48.756;9.246;2024-03-29T04:28:05;5.00;79.80
55648;DHT22;45266;48.756;9.246;2024-03-29T04:33:06;4.90;80.30
55648;DHT22;45266;48.756;9.246;2024-03-29T04:38:07;4.90;80.50
55648;DHT22;45266;48.756;9.246;2024-03-29T04:43:08;5.00;80.30
55648;DHT22;45266;48.756;9.246;2024-03-29T04:48:09;5.00;82.00
55648;DHT22;45266;48.756;9.246;2024-03-29T04:53:10;5.10;81.80
55648;DHT22;45266;48.756;9.246;2024-03-29T04:58:11;5.30;80.30
55648;DHT22;45266;48.756;9.246;2024-03-29T05:03:12;5.30;79.30
55648;DHT22;45266;48.756;9.246;2024-03-29T05:08:13;5.40;80.00
55648;DHT22;45266;48.756;9.246;2024-03-29T05:13:14;5.50;79.00
55648;DHT22;45266;48.756;9.246;2024-03-29T05:18:15;5.50;78.50
55648;DHT22;45266;48.756;9.246;2024-03-29T05:23:16;5.50;80.30
55648;DHT22;45266;48.756;9.246;2024-03-29T05:28:17;5.50;81.40
55648;DHT22;45266;48.756;9.246;2024-03-29T05:33:18;5.40;81.20
55648;DHT22;45266;48.756;9.246;2024-03-29T05:38:19;5.50;80.70
55648;DHT22;45266;48.756;9.246;2024-03-29T05:43:20;5.50;81.70
55648;DHT22;45266;48.756;9.246;2024-03-29T05:48:21;5.60;82.80
55648;DHT22;45266;48.756;9.246;2024-03-29T05:53:22;5.60;81.30
55648;DHT22;45266;48.756;9.246;2024-03-29T05:58:23;5.70;81.50
55648;DHT22;45266;48.756;9.246;2024-03-29T06:03:23;5.70;81.50
55648;DHT22;45266;48.756;9.246;2024-03-29T06:08:25;5.90;81.10
55648;DHT22;45266;48.756;9.246;2024-03-29T06:13:27;5.90;80.70
55648;DHT22;45266;48.756;9.246;2024-03-29T06:18:48;6.00;80.00
55648;DHT22;45266;48.756;9.246;2024-03-29T06:23:50;6.10;80.20
55648;DHT22;45266;48.756;9.246;2024-03-29T06:28:53;6.30;79.60
55648;DHT22;45266;48.756;9.246;2024-03-29T06:33:55;6.40;79.70
55648;DHT22;45266;48.756;9.246;2024-03-29T06:38:57;6.50;78.60
55648;DHT22;45266;48.756;9.246;2024-03-29T06:44:06;6.70;76.20
55648;DHT22;45266;48.756;9.246;2024-03-29T06:49:08;7.00;74.30
55648;DHT22;45266;48.756;9.246;2024-03-29T06:54:09;7.20;72.00
55648;DHT22;45266;48.756;9.246;2024-03-29T06:59:10;7.50;71.30
55648;DHT22;45266;48.756;9.246;2024-03-29T07:04:11;7.60;73.40
55648;DHT22;45266;48.756;9.246;2024-03-29T07:09:12;7.80;71.90
55648;DHT22;45266;48.756;9.246;2024-03-29T07:14:34;8.00;72.80
55648;DHT22;45266;48.756;9.246;2024-03-29T07:19:39;8.20;69.80
55648;DHT22;45266;48.756;9.246;2024-03-29T07:25:01;8.30;66.90
55648;DHT22;45266;48.756;9.246;2024-03-29T07:30:07;8.40;67.60
55648;DHT22;45266;48.756;9.246;2024-03-29T07:35:15;8.40;68.90
55648;DHT22;45266;48.756;9.246;2024-03-29T07:40:19;8.30;70.30
55648;DHT22;45266;48.756;9.246;2024-03-29T07:45:21;8.20;70.80
55648;DHT22;45266;48.756;9.246;2024-03-29T07:50:24;8.00;78.80
55648;DHT22;45266;48.756;9.246;2024-03-29T07:56:36;7.80;82.30
55648;DHT22;45266;48.756;9.246;2024-03-29T08:01:39;7.60;85.00
55648;DHT22;45266;48.756;9.246;2024-03-29T08:06:42;7.60;84.50
55648;DHT22;45266;48.756;9.246;2024-03-29T08:11:43;7.50;85.80
55648;DHT22;45266;48.756;9.246;2024-03-29T08:16:44;7.50;87.40
55648;DHT22;45266;48.756;9.246;2024-03-29T08:21:45;7.40;89.00
55648;DHT22;45266;48.756;9.246;2024-03-29T08:26:46;7.40;90.30
55648;DHT22;45266;48.756;9.246;2024-03-29T08:31:47;7.40;91.10
55648;DHT22;45266;48.756;9.246;2024-03-29T08:36:50;7.50;91.10
55648;DHT22;45266;48.756;9.246;2024-03-29T08:41:58;7.50;91.20
55648;DHT22;45266;48.756;9.246;2024-03-29T08:47:00;7.50;91.30
55648;DHT22;45266;48.756;9.246;2024-03-29T08:52:05;7.50;91.80
55648;DHT22;45266;48.756;9.246;2024-03-29T08:57:07;7.60;91.70
55648;DHT22;45266;48.756;9.246;2024-03-29T09:02:09;7.60;89.70
55648;DHT22;45266;48.756;9.246;2024-03-29T09:07:12;7.70;90.00
55648;DHT22;45266;48.756;9.246;2024-03-29T09:12:13;7.80;90.90
55648;DHT22;45266;48.756;9.246;2024-03-29T09:17:15;8.00;91.30
55648;DHT22;45266;48.756;9.246;2024-03-29T09:22:16;8.20;91.20
55648;DHT22;45266;48.756;9.246;2024-03-29T09:27:18;8.20;90.40
55648;DHT22;45266;48.756;9.246;2024-03-29T09:32:19;8.30;89.50
55648;DHT22;45266;48.756;9.246;2024-03-29T09:37:24;8.40;90.10
55648;DHT22;45266;48.756;9.246;2024-03-29T09:42:26;8.50;90.40
55648;DHT22;45266;48.756;9.246;2024-03-29T09:47:27;8.50;90.30
55648;DHT22;45266;48.756;9.246;2024-03-29T09:52:30;8.50;89.60
55648;DHT22;45266;48.756;9.246;2024-03-29T09:57:32;8.60;88.30
55648;DHT22;45266;48.756;9.246;2024-03-29T10:02:33;8.80;87.70
55648;DHT22;45266;48.756;9.246;2024-03-29T10:07:35;9.00;88.00
55648;DHT22;45266;48.756;9.246;2024-03-29T10:12:38;9.20;85.40
55648;DHT22;45266;48.756;9.246;2024-03-29T10:17:39;9.40;83.80
55648;DHT22;45266;48.756;9.246;2024-03-29T10:22:43;9.70;84.20
55648;DHT22;45266;48.756;9.246;2024-03-29T10:27:44;9.80;80.80
55648;DHT22;45266;48.756;9.246;2024-03-29T10:32:45;10.20;81.00
55648;DHT22;45266;48.756;9.246;2024-03-29T10:37:46;10.50;79.10
55648;DHT22;45266;48.756;9.246;2024-03-29T10:42:47;10.60;77.70
55648;DHT22;45266;48.756;9.246;2024-03-29T10:47:49;10.70;76.80
55648;DHT22;45266;48.756;9.246;2024-03-29T10:52:53;11.00;74.40
55648;DHT22;45266;48.756;9.246;2024-03-29T10:57:57;11.30;76.40
55648;DHT22;45266;48.756;9.246;2024-03-29T11:03:13;11.50;75.60
55648;DHT22;45266;48.756;9.246;2024-03-29T11:08:21;11.60;75.10
55648;DHT22;45266;48.756;9.246;2024-03-29T11:13:49;11.90;73.90
55648;DHT22;45266;48.756;9.246;2024-03-29T11:18:52;12.00;69.20
55648;DHT22;45266;48.756;9.246;2024-03-29T11:23:54;12.10;68.30
55648;DHT22;45266;48.756;9.246;2024-03-29T11:28:58;12.30;70.30
55648;DHT22;45266;48.756;9.246;2024-03-29T11:34:00;12.50;70.00
55648;DHT22;45266;48.756;9.246;2024-03-29T11:39:00;12.60;66.60
55648;DHT22;45266;48.756;9.246;2024-03-29T11:44:02;12.90;67.90
55648;DHT22;45266;48.756;9.246;2024-03-29T11:49:03;13.00;65.00
55648;DHT22;45266;48.756;9.246;2024-03-29T11:54:04;13.00;64.00
55648;DHT22;45266;48.756;9.246;2024-03-29T11:59:05;13.10;65.10
55648;DHT22;45266;48.756;9.246;2024-03-29T12:04:06;13.10;63.10
55648;DHT22;45266;48.756;9.246;2024-03-29T12:09:08;13.10;64.30
55648;DHT22;45266;48.756;9.246;2024-03-29T12:14:12;13.10;63.20
55648;DHT22;45266;48.756;9.246;2024-03-29T12:19:24;13.30;62.80
55648;DHT22;45266;48.756;9.246;2024-03-29T12:24:25;13.50;62.00
55648;DHT22;45266;48.756;9.246;2024-03-29T12:29:27;13.50;63.30
55648;DHT22;45266;48.756;9.246;2024-03-29T12:34:28;13.70;63.40
55648;DHT22;45266;48.756;9.246;2024-03-29T12:39:30;14.00;63.90
55648;DHT22;45266;48.756;9.246;2024-03-29T12:44:34;14.00;64.40
55648;DHT22;45266;48.756;9.246;2024-03-29T12:49:35;14.50;64.40
55648;DHT22;45266;48.756;9.246;2024-03-29T12:54:40;14.80;63.60
55648;DHT22;45266;48.756;9.246;2024-03-29T12:59:41;14.90;62.60
55648;DHT22;45266;48.756;9.246;2024-03-29T13:04:42;15.00;62.80
55648;DHT22;45266;48.756;9.246;2024-03-29T13:09:45;14.90;63.60
55648;DHT22;45266;48.756;9.246;2024-03-29T13:14:46;15.10;63.50
55648;DHT22;45266;48.756;9.246;2024-03-29T13:19:47;15.80;62.30
55648;DHT22;45266;48.756;9.246;2024-03-29T13:24:48;16.20;59.40
55648;DHT22;45266;48.756;9.246;2024-03-29T13:29:49;16.40;58.20
55648;DHT22;45266;48.756;9.246;2024-03-29T13:34:50;16.40;56.80
55648;DHT22;45266;48.756;9.246;2024-03-29T13:39:51;16.50;56.40
55648;DHT22;45266;48.756;9.246;2024-03-29T13:44:52;16.80;53.60
55648;DHT22;45266;48.756;9.246;2024-03-29T13:49:54;17.00;52.60
55648;DHT22;45266;48.756;9.246;2024-03-29T13:54:56;17.00;52.10
55648;DHT22;45266;48.756;9.246;2024-03-29T14:00:00;17.10;52.90
55648;DHT22;45266;48.756;9.246;2024-03-29T14:05:01;16.90;51.50
55648;DHT22;45266;48.756;9.246;2024-03-29T14:10:02;17.00;52.80
55648;DHT22;45266;48.756;9.246;2024-03-29T14:15:05;17.20;53.90
55648;DHT22;45266;48.756;9.246;2024-03-29T14:20:07;17.60;50.90
55648;DHT22;45266;48.756;9.246;2024-03-29T14:25:08;17.70;49.10
55648;DHT22;45266;48.756;9.246;2024-03-29T14:30:11;17.80;51.00
55648;DHT22;45266;48.756;9.246;2024-03-29T14:35:12;17.80;51.30
55648;DHT22;45266;48.756;9.246;2024-03-29T14:40:13;17.60;53.70
55648;DHT22;45266;48.756;9.246;2024-03-29T14:45:15;18.00;51.60
55648;DHT22;45266;48.756;9.246;2024-03-29T14:50:16;18.50;49.20
55648;DHT22;45266;48.756;9.246;2024-03-29T14:55:19;18.40;49.50
55648;DHT22;45266;48.756;9.246;2024-03-29T15:00:20;18.20;50.50
55648;DHT22;45266;48.756;9.246;2024-03-29T15:05:23;18.00;49.50
55648;DHT22;45266;48.756;9.246;2024-03-29T15:10:26;17.80;50.10
55648;DHT22;45266;48.756;9.246;2024-03-29T15:15:27;17.60;50.10
55648;DHT22;45266;48.756;9.246;2024-03-29T15:20:28;17.50;50.00
55648;DHT22;45266;48.756;9.246;2024-03-29T15:25:29;17.40;50.70
55648;DHT22;45266;48.756;9.246;2024-03-29T15:30:29;17.30;51.80
55648;DHT22;45266;48.756;9.246;2024-03-29T15:35:30;17.40;51.00
55648;DHT22;45266;48.756;9.246;2024-03-29T15:40:31;17.20;51.20
55648;DHT22;45266;48.756;9.246;2024-03-29T15:45:32;17.20;50.60
55648;DHT22;45266;48.756;9.246;2024-03-29T15:50:33;17.00;52.00
55648;DHT22;45266;48.756;9.246;2024-03-29T15:55:34;16.80;52.80
55648;DHT22;45266;48.756;9.246;2024-03-29T16:00:35;16.90;51.90
55648;DHT22;45266;48.756;9.246;2024-03-29T16:05:43;16.80;51.60
55648;DHT22;45266;48.756;9.246;2024-03-29T16:10:59;16.80;50.80
55648;DHT22;45266;48.756;9.246;2024-03-29T16:16:03;16.80;51.20
55648;DHT22;45266;48.756;9.246;2024-03-29T16:21:04;16.80;51.50
55648;DHT22;45266;48.756;9.246;2024-03-29T16:26:05;16.60;50.90
55648;DHT22;45266;48.756;9.246;2024-03-29T16:31:06;16.40;52.00
55648;DHT22;45266;48.756;9.246;2024-03-29T16:36:07;16.10;53.40
55648;DHT22;45266;48.756;9.246;2024-03-29T16:41:08;16.00;54.20
55648;DHT22;45266;48.756;9.246;2024-03-29T16:46:09;15.80;55.10
55648;DHT22;45266;48.756;9.246;2024-03-29T16:51:10;15.70;57.80
55648;DHT22;45266;48.756;9.246;2024-03-29T16:56:12;15.40;58.90
55648;DHT22;45266;48.756;9.246;2024-03-29T17:01:14;15.30;58.10
55648;DHT22;45266;48.756;9.246;2024-03-29T17:06:15;15.20;54.30
55648;DHT22;45266;48.756;9.246;2024-03-29T17:11:15;15.00;58.50
55648;DHT22;45266;48.756;9.246;2024-03-29T17:16:16;14.60;58.00
55648;DHT22;45266;48.756;9.246;2024-03-29T17:21:17;14.40;59.10
55648;DHT22;45266;48.756;9.246;2024-03-29T17:26:18;14.10;60.80
55648;DHT22;45266;48.756;9.246;2024-03-29T17:31:19;13.90;62.90
55648;DHT22;45266;48.756;9.246;2024-03-29T17:36:20;13.60;63.90
55648;DHT22;45266;48.756;9.246;2024-03-29T17:41:21;13.40;64.70
55648;DHT22;45266;48.756;9.246;2024-03-29T17:46:22;13.20;65.20
55648;DHT22;45266;48.756;9.246;2024-03-29T17:51:23;13.10;66.50
55648;DHT22;45266;48.756;9.246;2024-03-29T17:56:23;12.80;68.50
55648;DHT22;45266;48.756;9.246;2024-03-29T18:01:25;12.60;70.00
55648;DHT22;45266;48.756;9.246;2024-03-29T18:06:25;12.50;70.40
55648;DHT22;45266;48.756;9.246;2024-03-29T18:11:27;12.20;70.60
55648;DHT22;45266;48.756;9.246;2024-03-29T18:16:28;12.10;71.70
55648;DHT22;45266;48.756;9.246;2024-03-29T18:21:28;11.90;74.00
55648;DHT22;45266;48.756;9.246;2024-03-29T18:26:29;11.70;74.90
55648;DHT22;45266;48.756;9.246;2024-03-29T18:31:30;11.50;74.90
55648;DHT22;45266;48.756;9.246;2024-03-29T18:36:31;11.40;75.20
55648;DHT22;45266;48.756;9.246;2024-03-29T18:41:32;11.30;76.10
55648;DHT22;45266;48.756;9.246;2024-03-29T18:46:35;11.10;76.70
55648;DHT22;45266;48.756;9.246;2024-03-29T18:51:35;10.90;77.40
55648;DHT22;45266;48.756;9.246;2024-03-29T18:56:36;10.70;78.20
55648;DHT22;45266;48.756;9.246;2024-03-29T19:01:37;10.60;78.80
55648;DHT22;45266;48.756;9.246;2024-03-29T19:06:39;10.50;78.90
55648;DHT22;45266;48.756;9.246;2024-03-29T19:11:40;10.40;79.20
55648;DHT22;45266;48.756;9.246;2024-03-29T19:16:40;10.30;79.50
55648;DHT22;45266;48.756;9.246;2024-03-29T19:21:41;10.20;80.20
55648;DHT22;45266;48.756;9.246;2024-03-29T19:26:46;10.00;80.70
55648;DHT22;45266;48.756;9.246;2024-03-29T19:31:47;10.00;80.60
55648;DHT22;45266;48.756;9.246;2024-03-29T19:36:48;9.80;81.20
55648;DHT22;45266;48.756;9.246;2024-03-29T19:41:53;9.70;81.60
55648;DHT22;45266;48.756;9.246;2024-03-29T19:46:54;9.60;82.40
55648;DHT22;45266;48.756;9.246;2024-03-29T19:51:55;9.50;82.60
55648;DHT22;45266;48.756;9.246;2024-03-29T19:56:56;9.50;82.90
55648;DHT22;45266;48.756;9.246;2024-03-29T20:01:57;9.40;83.00
55648;DHT22;45266;48.756;9.246;2024-03-29T20:06:58;9.40;83.70
55648;DHT22;45266;48.756;9.246;2024-03-29T20:11:59;9.30;83.90
55648;DHT22;45266;48.756;9.246;2024-03-29T20:17:02;9.20;84.40
55648;DHT22;45266;48.756;9.246;2024-03-29T20:22:04;9.20;85.00
55648;DHT22;45266;48.756;9.246;2024-03-29T20:27:05;9.00;84.80
55648;DHT22;45266;48.756;9.246;2024-03-29T20:32:06;9.00;85.20
55648;DHT22;45266;48.756;9.246;2024-03-29T20:37:08;9.00;85.40
55648;DHT22;45266;48.756;9.246;2024-03-29T20:42:10;8.90;85.70
55648;DHT22;45266;48.756;9.246;2024-03-29T20:47:10;8.80;86.50
55648;DHT22;45266;48.756;9.246;2024-03-29T20:52:11;8.80;86.60
55648;DHT22;45266;48.756;9.246;2024-03-29T20:57:12;8.70;86.60
55648;DHT22;45266;48.756;9.246;2024-03-29T21:02:13;8.60;87.30
55648;DHT22;45266;48.756;9.246;2024-03-29T21:07:33;8.60;87.70
55648;DHT22;45266;48.756;9.246;2024-03-29T21:12:34;8.50;87.60
55648;DHT22;45266;48.756;9.246;2024-03-29T21:17:35;8.40;87.60
55648;DHT22;45266;48.756;9.246;2024-03-29T21:22:38;8.30;88.40
55648;DHT22;45266;48.756;9.246;2024-03-29T21:27:41;8.20;88.70
55648;DHT22;45266;48.756;9.246;2024-03-29T21:32:42;8.20;88.70
55648;DHT22;45266;48.756;9.246;2024-03-29T21:37:43;8.10;88.90
55648;DHT22;45266;48.756;9.246;2024-03-29T21:42:44;8.10;88.40
55648;DHT22;45266;48.756;9.246;2024-03-29T21:47:45;8.00;88.90
55648;DHT22;45266;48.756;9.246;2024-03-29T21:52:46;7.80;89.70
55648;DHT22;45266;48.756;9.246;2024-03-29T21:57:46;7.80;90.00
55648;DHT22;45266;48.756;9.246;2024-03-29T22:02:49;7.70;90.00
55648;DHT22;45266;48.756;9.246;2024-03-29T22:07:50;7.60;89.70
55648;DHT22;45266;48.756;9.246;2024-03-29T22:12:51;7.50;90.50
55648;DHT22;45266;48.756;9.246;2024-03-29T22:17:52;7.60;91.40
55648;DHT22;45266;48.756;9.246;2024-03-29T22:22:53;7.50;91.00
55648;DHT22;45266;48.756;9.246;2024-03-29T22:27:54;7.50;90.80
55648;DHT22;45266;48.756;9.246;2024-03-29T22:32:55;7.50;91.40
55648;DHT22;45266;48.756;9.246;2024-03-29T22:37:57;7.40;91.10
55648;DHT22;45266;48.756;9.246;2024-03-29T22:42:58;7.40;91.20
55648;DHT22;45266;48.756;9.246;2024-03-29T22:47:59;7.40;91.10
55648;DHT22;45266;48.756;9.246;2024-03-29T22:53:00;7.30;91.20
55648;DHT22;45266;48.756;9.246;2024-03-29T22:58:07;7.20;91.40
55648;DHT22;45266;48.756;9.246;2024-03-29T23:03:08;7.20;91.80
55648;DHT22;45266;48.756;9.246;2024-03-29T23:08:09;7.20;92.00
55648;DHT22;45266;48.756;9.246;2024-03-29T23:13:09;7.20;91.80
55648;DHT22;45266;48.756;9.246;2024-03-29T23:18:11;7.00;91.60
55648;DHT22;45266;48.756;9.246;2024-03-29T23:23:12;7.00;91.90
55648;DHT22;45266;48.756;9.246;2024-03-29T23:28:13;7.00;92.30
55648;DHT22;45266;48.756;9.246;2024-03-29T23:33:16;7.00;92.10
55648;DHT22;45266;48.756;9.246;2024-03-29T23:38:16;6.80;92.20
55648;DHT22;45266;48.756;9.246;2024-03-29T23:43:17;6.80;92.30
55648;DHT22;45266;48.756;9.246;2024-03-29T23:48:18;6.80;92.30
55648;DHT22;45266;48.756;9.246;2024-03-29T23:53:19;6.70;92.80
55648;DHT22;45266;48.756;9.246;2024-03-29T23:58:25;6.80;92.90
